createdAt,value
2023-03-28T00:02:05.396Z,8.77
2023-03-28T00:04:32.011Z,4.63
2023-03-28T00:06:58.782Z,7.13
2023-03-28T00:09:25.725Z,5.57
2023-03-28T00:11:52.548Z,7.33
2023-03-28T00:14:19.119Z,7.40
2023-03-28T00:16:48.188Z,9.37
2023-03-28T00:19:17.965Z,5.23
2023-03-28T00:21:48.149Z,5.80
2023-03-28T00:24:17.552Z,8.87
2023-03-28T00:26:45.295Z,3.10
2023-03-28T00:29:20.838Z,3.80
2023-03-28T00:31:49.496Z,10.03
2023-03-28T00:34:16.916Z,10.90
2023-03-28T00:36:43.513Z,6.50
2023-03-28T00:39:10.542Z,11.10
2023-03-28T00:41:42.610Z,5.53
2023-03-28T00:44:46.451Z,8.73
2023-03-28T00:47:27.445Z,13.73
2023-03-28T00:50:02.952Z,5.47
2023-03-28T00:52:34.389Z,6.57
2023-03-28T00:55:02.962Z,11.70
2023-03-28T00:57:29.580Z,5.23
2023-03-28T00:59:56.175Z,5.50
2023-03-28T01:02:23.014Z,5.93
2023-03-28T01:04:59.712Z,10.53
2023-03-28T01:07:33.216Z,17.67
2023-03-28T01:10:00.054Z,7.83
2023-03-28T01:12:26.692Z,6.23
2023-03-28T01:14:54.158Z,8.13
2023-03-28T01:17:21.069Z,4.07
2023-03-28T01:20:01.788Z,3.67
2023-03-28T01:22:56.523Z,5.37
2023-03-28T01:26:04.029Z,11.43
2023-03-28T01:28:56.222Z,5.83
2023-03-28T01:31:56.672Z,7.93
2023-03-28T01:34:54.370Z,9.70
2023-03-28T01:37:41.974Z,7.80
2023-03-28T01:40:36.904Z,5.57
2023-03-28T01:43:32.297Z,5.20
2023-03-28T01:46:16.954Z,4.33
2023-03-28T01:49:02.153Z,6.57
2023-03-28T01:51:31.454Z,7.80
2023-03-28T01:54:14.489Z,2.43
2023-03-28T01:57:02.204Z,7.90
2023-03-28T01:59:42.887Z,3.50
2023-03-28T02:02:18.050Z,4.70
2023-03-28T02:04:46.912Z,5.83
2023-03-28T02:07:14.902Z,13.60
2023-03-28T02:09:44.121Z,5.93
2023-03-28T02:12:20.259Z,5.30
2023-03-28T02:14:48.784Z,6.17
2023-03-28T02:17:16.537Z,6.93
2023-03-28T02:19:55.294Z,6.57
2023-03-28T02:22:39.276Z,11.40
2023-03-28T02:25:06.459Z,4.93
2023-03-28T02:27:34.695Z,9.00
2023-03-28T02:30:01.596Z,4.80
2023-03-28T02:32:28.408Z,7.03
2023-03-28T02:34:55.943Z,6.43
2023-03-28T02:37:34.763Z,7.43
2023-03-28T02:40:07.939Z,4.87
2023-03-28T02:43:06.249Z,5.10
2023-03-28T02:46:02.172Z,4.00
2023-03-28T02:48:45.636Z,9.67
2023-03-28T02:51:34.679Z,4.47
2023-03-28T02:54:04.465Z,7.83
2023-03-28T02:57:02.316Z,5.27
2023-03-28T02:59:42.477Z,8.37
2023-03-28T03:02:10.047Z,8.03
2023-03-28T03:04:36.987Z,5.80
2023-03-28T03:07:03.582Z,5.67
2023-03-28T03:09:30.349Z,7.73
2023-03-28T03:11:56.941Z,6.07
2023-03-28T03:14:29.049Z,5.03
2023-03-28T03:16:55.617Z,4.73
2023-03-28T03:19:22.183Z,6.47
2023-03-28T03:21:49.817Z,10.60
2023-03-28T03:24:16.424Z,4.77
2023-03-28T03:26:42.995Z,4.37
2023-03-28T03:29:09.587Z,3.50
2023-03-28T03:31:36.859Z,10.40
2023-03-28T03:34:03.625Z,6.00
2023-03-28T03:36:33.249Z,10.57
2023-03-28T03:39:00.046Z,6.17
2023-03-28T03:41:26.784Z,3.90
2023-03-28T03:43:53.480Z,3.00
2023-03-28T03:46:20.120Z,7.13
2023-03-28T03:48:50.054Z,10.40
2023-03-28T03:51:17.567Z,6.57
2023-03-28T03:53:44.859Z,5.27
2023-03-28T03:56:11.478Z,6.87
2023-03-28T03:58:38.038Z,7.03
2023-03-28T04:01:04.824Z,11.70
2023-03-28T04:03:33.749Z,10.30
2023-03-28T04:06:01.976Z,9.70
2023-03-28T04:08:28.818Z,13.03
2023-03-28T04:10:55.496Z,14.10
2023-03-28T04:13:22.292Z,16.40
2023-03-28T04:15:50.312Z,11.80
2023-03-28T04:18:20.306Z,10.23
2023-03-28T04:20:53.699Z,12.00
2023-03-28T04:23:25.565Z,8.60
2023-03-28T04:26:00.188Z,11.03
2023-03-28T04:28:27.680Z,10.93
2023-03-28T04:31:00.824Z,12.00
2023-03-28T04:33:30.088Z,8.33
2023-03-28T04:36:02.772Z,13.57
2023-03-28T04:38:36.013Z,11.73
2023-03-28T04:41:04.433Z,16.73
2023-03-28T04:43:32.136Z,10.73
2023-03-28T04:45:59.314Z,16.33
2023-03-28T04:48:27.221Z,12.60
2023-03-28T04:50:55.165Z,12.83
2023-03-28T04:53:22.324Z,9.07
2023-03-28T04:55:50.166Z,9.93
2023-03-28T04:58:22.354Z,8.47
2023-03-28T05:00:49.641Z,13.60
2023-03-28T05:03:19.040Z,12.63
2023-03-28T05:05:47.845Z,11.63
2023-03-28T05:08:16.196Z,13.43
2023-03-28T05:10:44.320Z,12.30
2023-03-28T05:13:11.469Z,13.10
2023-03-28T05:15:38.063Z,17.80
2023-03-28T05:18:05.611Z,13.73
2023-03-28T05:20:32.949Z,11.90
2023-03-28T05:22:59.577Z,18.53
2023-03-28T05:25:26.209Z,15.37
2023-03-28T05:27:52.816Z,8.23
2023-03-28T05:30:19.808Z,20.10
2023-03-28T05:32:46.988Z,22.53
2023-03-28T05:35:15.655Z,11.13
2023-03-28T05:37:44.218Z,8.97
2023-03-28T05:40:14.285Z,11.07
2023-03-28T05:42:41.179Z,13.37
2023-03-28T05:45:09.432Z,21.00
2023-03-28T05:47:36.421Z,16.23
2023-03-28T05:50:04.104Z,21.87
2023-03-28T05:52:30.724Z,13.37
2023-03-28T05:54:57.425Z,11.50
2023-03-28T05:57:25.100Z,10.30
2023-03-28T05:59:51.819Z,13.50
2023-03-28T06:02:20.590Z,13.60
2023-03-28T06:04:47.475Z,16.33
2023-03-28T06:07:14.686Z,15.20
2023-03-28T06:09:42.066Z,15.87
2023-03-28T06:12:08.800Z,13.83
2023-03-28T06:14:35.426Z,16.13
2023-03-28T06:17:02.037Z,21.87
2023-03-28T06:19:28.673Z,18.23
2023-03-28T06:21:55.316Z,12.90
2023-03-28T06:24:21.886Z,20.93
2023-03-28T06:26:48.490Z,14.60
2023-03-28T06:29:16.261Z,17.63
2023-03-28T06:31:43.214Z,14.37
2023-03-28T06:34:09.879Z,12.90
2023-03-28T06:36:36.489Z,12.47
2023-03-28T06:39:03.378Z,18.13
2023-03-28T06:41:30.527Z,14.00
2023-03-28T06:43:57.288Z,13.70
2023-03-28T06:46:23.993Z,12.93
2023-03-28T06:48:50.588Z,13.10
2023-03-28T06:51:17.161Z,9.60
2023-03-28T06:53:43.712Z,11.70
2023-03-28T06:56:11.250Z,10.57
2023-03-28T06:58:38.970Z,11.20
2023-03-28T07:01:06.457Z,10.63
2023-03-28T07:03:33.330Z,9.60
2023-03-28T07:06:04.682Z,14.93
2023-03-28T07:08:31.244Z,16.20
2023-03-28T07:10:57.944Z,10.77
2023-03-28T07:13:24.767Z,8.67
2023-03-28T07:16:07.009Z,9.20
2023-03-28T07:18:34.337Z,9.47
2023-03-28T07:21:07.037Z,9.50
2023-03-28T07:23:34.192Z,6.53
2023-03-28T07:26:00.852Z,11.33
2023-03-28T07:28:27.895Z,14.83
2023-03-28T07:30:55.296Z,6.83
2023-03-28T07:33:30.250Z,14.23
2023-03-28T07:36:11.405Z,10.50
2023-03-28T07:38:38.072Z,11.00
2023-03-28T07:41:05.394Z,7.37
2023-03-28T07:43:32.171Z,8.63
2023-03-28T07:46:03.222Z,6.83
2023-03-28T07:48:30.551Z,7.80
2023-03-28T07:50:57.253Z,7.47
2023-03-28T07:53:23.915Z,5.57
2023-03-28T07:55:55.216Z,9.47
2023-03-28T07:58:22.436Z,6.83
2023-03-28T08:00:49.012Z,12.60
2023-03-28T08:03:16.600Z,9.80
2023-03-28T08:05:51.327Z,7.60
2023-03-28T08:08:20.760Z,10.00
2023-03-28T08:10:51.003Z,11.40
2023-03-28T08:13:19.539Z,3.97
2023-03-28T08:15:49.075Z,8.77
2023-03-28T08:18:20.676Z,6.70
2023-03-28T08:20:51.638Z,7.37
2023-03-28T08:23:18.248Z,8.70
2023-03-28T08:25:44.865Z,8.40
2023-03-28T08:28:11.423Z,6.03
2023-03-28T08:30:38.053Z,7.53
2023-03-28T08:33:05.157Z,8.73
2023-03-28T08:35:32.437Z,5.47
2023-03-28T08:37:59.882Z,4.40
2023-03-28T08:40:28.763Z,6.47
2023-03-28T08:43:03.907Z,4.83
2023-03-28T08:45:40.999Z,14.23
2023-03-28T08:48:17.445Z,5.37
2023-03-28T08:50:53.136Z,19.03
2023-03-28T08:53:37.298Z,6.17
2023-03-28T08:56:06.667Z,7.37
2023-03-28T08:59:03.150Z,3.90
2023-03-28T09:01:32.677Z,5.03
2023-03-28T09:04:00.968Z,4.90
2023-03-28T09:06:41.044Z,5.87
2023-03-28T09:09:24.985Z,5.00
2023-03-28T09:12:00.884Z,7.63
2023-03-28T09:14:42.857Z,6.00
2023-03-28T09:17:26.757Z,7.20
2023-03-28T09:20:17.654Z,3.60
2023-03-28T09:23:06.024Z,11.73
2023-03-28T09:25:43.743Z,4.33
2023-03-28T09:28:31.326Z,7.60
2023-03-28T09:30:59.429Z,9.30
2023-03-28T09:33:38.105Z,6.63
2023-03-28T09:36:22.563Z,4.53
2023-03-28T09:39:10.780Z,7.43
2023-03-28T09:42:00.267Z,7.37
2023-03-28T09:44:40.850Z,3.80
2023-03-28T09:47:13.853Z,4.83
2023-03-28T09:49:40.548Z,6.00
2023-03-28T09:52:15.770Z,10.27
2023-03-28T09:54:42.543Z,9.20
2023-03-28T09:57:09.119Z,10.00
2023-03-28T09:59:36.240Z,8.90
2023-03-28T10:02:04.037Z,8.67
2023-03-28T10:04:39.910Z,7.57
2023-03-28T10:07:09.193Z,6.43
2023-03-28T10:09:50.871Z,6.20
2023-03-28T10:12:33.032Z,5.43
2023-03-28T10:15:00.225Z,5.07
2023-03-28T10:17:37.916Z,6.70
2023-03-28T10:20:16.880Z,4.70
2023-03-28T10:22:47.384Z,3.17
2023-03-28T10:25:21.388Z,4.03
2023-03-28T10:27:51.583Z,7.03
2023-03-28T10:30:25.214Z,3.90
2023-03-28T10:33:18.048Z,6.40
2023-03-28T10:36:06.386Z,3.53
2023-03-28T10:38:48.009Z,2.00
2023-03-28T10:41:23.810Z,7.17
2023-03-28T10:43:52.824Z,2.97
2023-03-28T10:46:28.364Z,2.70
2023-03-28T10:49:07.603Z,5.37
2023-03-28T10:51:38.103Z,6.70
2023-03-28T10:54:15.986Z,3.87
2023-03-28T10:56:52.719Z,6.07
2023-03-28T10:59:34.275Z,3.83
2023-03-28T11:02:36.403Z,6.93
2023-03-28T11:05:31.721Z,1.83
2023-03-28T11:08:35.992Z,4.83
2023-03-28T11:11:36.494Z,3.13
2023-03-28T11:14:36.362Z,3.97
2023-03-28T11:17:20.240Z,6.27
2023-03-28T11:20:10.539Z,2.60
2023-03-28T11:23:02.756Z,2.63
2023-03-28T11:25:40.636Z,6.97
2023-03-28T11:28:26.124Z,7.27
2023-03-28T11:30:56.673Z,4.60
2023-03-28T11:33:48.034Z,3.93
2023-03-28T11:36:19.432Z,2.80
2023-03-28T11:38:55.463Z,3.60
2023-03-28T11:41:27.042Z,6.83
2023-03-28T11:44:17.175Z,3.47
2023-03-28T11:46:49.107Z,3.87
2023-03-28T11:49:30.552Z,6.77
2023-03-28T11:52:09.162Z,6.20
2023-03-28T11:54:42.673Z,4.57
2023-03-28T11:57:39.363Z,1.20
2023-03-28T12:00:11.407Z,3.27
2023-03-28T12:02:52.148Z,2.00
2023-03-28T12:05:22.639Z,3.60
2023-03-28T12:08:01.071Z,6.33
2023-03-28T12:10:39.764Z,1.83
2023-03-28T12:13:46.815Z,4.80
2023-03-28T12:16:34.474Z,5.37
2023-03-28T12:19:05.557Z,4.80
2023-03-28T12:21:46.241Z,3.20
2023-03-28T12:24:23.306Z,5.83
2023-03-28T12:27:31.813Z,3.57
2023-03-28T12:30:21.048Z,4.27
2023-03-28T12:33:06.542Z,4.63
2023-03-28T12:35:57.387Z,1.90
2023-03-28T12:38:46.093Z,3.90
2023-03-28T12:41:19.160Z,3.93
2023-03-28T12:44:00.384Z,2.53
2023-03-28T12:46:48.524Z,3.63
2023-03-28T12:49:24.870Z,7.17
2023-03-28T12:51:58.064Z,3.13
2023-03-28T12:54:31.737Z,3.53
2023-03-28T12:57:14.134Z,2.20
2023-03-28T12:59:58.235Z,5.27
2023-03-28T13:02:36.905Z,3.77
2023-03-28T13:05:39.824Z,2.53
2023-03-28T13:08:17.517Z,3.60
2023-03-28T13:10:59.230Z,2.20
2023-03-28T13:14:04.440Z,10.43
2023-03-28T13:16:51.529Z,2.53
2023-03-28T13:19:20.193Z,1.83
2023-03-28T13:21:56.151Z,4.33
2023-03-28T13:24:28.510Z,2.87
2023-03-28T13:26:58.039Z,5.03
2023-03-28T13:29:45.534Z,2.43
2023-03-28T13:32:16.309Z,3.83
2023-03-28T13:34:57.678Z,1.90
2023-03-28T13:37:26.880Z,3.27
2023-03-28T13:39:59.119Z,2.57
2023-03-28T13:42:31.536Z,3.80
2023-03-28T13:45:21.489Z,4.47
2023-03-28T13:47:53.058Z,3.43
2023-03-28T13:50:28.579Z,6.20
2023-03-28T13:52:55.168Z,3.70
2023-03-28T13:55:25.132Z,3.67
2023-03-28T13:57:52.689Z,1.17
2023-03-28T14:00:28.827Z,1.80
2023-03-28T14:03:03.318Z,2.13
2023-03-28T14:05:32.627Z,3.57
2023-03-28T14:08:21.269Z,1.57
2023-03-28T14:10:51.291Z,2.53
2023-03-28T14:13:24.771Z,2.50
2023-03-28T14:15:52.816Z,6.10
2023-03-28T14:18:25.264Z,2.83
2023-03-28T14:20:54.764Z,3.50
2023-03-28T14:23:34.362Z,2.20
2023-03-28T14:26:02.305Z,2.53
2023-03-28T14:28:30.612Z,3.30
2023-03-28T14:30:58.145Z,3.70
2023-03-28T14:33:25.402Z,1.57
2023-03-28T14:35:59.264Z,6.90
2023-03-28T14:38:32.229Z,3.50
2023-03-28T14:41:21.221Z,2.37
2023-03-28T14:43:52.143Z,3.00
2023-03-28T14:46:24.366Z,2.20
2023-03-28T14:48:53.936Z,2.53
2023-03-28T14:51:25.154Z,3.10
2023-03-28T14:53:52.019Z,5.23
2023-03-28T14:56:26.228Z,5.13
2023-03-28T14:58:57.676Z,3.10
2023-03-28T15:01:25.667Z,3.90
2023-03-28T15:03:58.380Z,3.53
2023-03-28T15:06:25.882Z,6.63
2023-03-28T15:08:52.625Z,2.90
2023-03-28T15:11:33.652Z,3.23
2023-03-28T15:14:05.535Z,4.10
2023-03-28T15:16:38.406Z,2.60
2023-03-28T15:19:18.004Z,3.13
2023-03-28T15:21:57.183Z,3.00
2023-03-28T15:24:26.013Z,4.60
2023-03-28T15:26:57.769Z,1.73
2023-03-28T15:29:25.391Z,2.43
2023-03-28T15:31:58.732Z,2.03
2023-03-28T15:34:29.111Z,1.53
2023-03-28T15:37:01.242Z,1.87
2023-03-28T15:39:32.947Z,4.00
2023-03-28T15:42:10.464Z,1.77
2023-03-28T15:44:40.845Z,3.27
2023-03-28T15:47:14.911Z,1.73
2023-03-28T15:49:41.736Z,2.67
2023-03-28T15:52:22.931Z,2.77
2023-03-28T15:54:53.861Z,2.73
2023-03-28T15:57:22.644Z,4.07
2023-03-28T15:59:51.231Z,3.10
2023-03-28T16:02:23.914Z,4.03
2023-03-28T16:05:15.138Z,2.80
2023-03-28T16:07:47.378Z,3.73
2023-03-28T16:10:19.548Z,1.83
2023-03-28T16:12:46.899Z,3.07
2023-03-28T16:15:14.093Z,3.73
2023-03-28T16:17:44.745Z,3.70
2023-03-28T16:20:20.681Z,2.30
2023-03-28T16:22:47.741Z,5.10
2023-03-28T16:25:14.554Z,2.53
2023-03-28T16:27:42.294Z,8.57
2023-03-28T16:30:30.612Z,4.13
2023-03-28T16:32:57.298Z,2.80
2023-03-28T16:35:26.883Z,3.20
2023-03-28T16:37:53.556Z,3.43
2023-03-28T16:40:20.524Z,3.83
2023-03-28T16:42:47.101Z,4.20
2023-03-28T16:45:16.915Z,3.47
2023-03-28T16:47:43.485Z,9.40
2023-03-28T16:50:10.452Z,2.53
2023-03-28T16:52:40.347Z,2.17
2023-03-28T16:55:12.063Z,3.67
2023-03-28T16:57:38.815Z,8.37
2023-03-28T17:00:07.187Z,10.90
2023-03-28T17:02:33.954Z,9.70
2023-03-28T17:05:01.007Z,4.83
2023-03-28T17:07:27.970Z,7.30
2023-03-28T17:09:54.601Z,4.97
2023-03-28T17:12:22.432Z,8.37
2023-03-28T17:14:49.170Z,4.70
2023-03-28T17:17:15.950Z,4.90
2023-03-28T17:19:43.094Z,4.33
2023-03-28T17:22:09.790Z,3.33
2023-03-28T17:24:36.407Z,2.90
2023-03-28T17:27:03.114Z,3.13
2023-03-28T17:29:30.589Z,5.30
2023-03-28T17:31:57.252Z,9.00
2023-03-28T17:34:24.109Z,5.77
2023-03-28T17:36:51.441Z,3.27
2023-03-28T17:39:18.025Z,4.73
2023-03-28T17:41:44.564Z,7.93
2023-03-28T17:44:11.183Z,4.33
2023-03-28T17:46:38.626Z,4.27
2023-03-28T17:49:05.339Z,5.00
2023-03-28T17:51:32.338Z,4.10
2023-03-28T17:54:00.717Z,5.40
2023-03-28T17:56:27.840Z,3.60
2023-03-28T17:58:54.430Z,4.90
2023-03-28T18:01:22.264Z,7.63
2023-03-28T18:03:49.019Z,4.50
2023-03-28T18:06:15.702Z,5.27
2023-03-28T18:08:45.147Z,8.43
2023-03-28T18:11:14.470Z,4.37
2023-03-28T18:13:41.770Z,5.33
2023-03-28T18:16:10.732Z,5.30
2023-03-28T18:18:38.288Z,8.10
2023-03-28T18:21:07.440Z,5.50
2023-03-28T18:23:35.334Z,4.77
2023-03-28T18:26:02.106Z,6.00
2023-03-28T18:28:28.861Z,9.30
2023-03-28T18:30:55.521Z,5.17
2023-03-28T18:33:22.562Z,7.63
2023-03-28T18:35:49.699Z,6.00
2023-03-28T18:38:16.324Z,5.33
2023-03-28T18:40:43.182Z,6.40
2023-03-28T18:43:10.189Z,6.23
2023-03-28T18:45:37.513Z,5.50
2023-03-28T18:48:04.824Z,5.93
2023-03-28T18:50:31.888Z,4.70
2023-03-28T18:52:58.635Z,7.50
2023-03-28T18:55:25.372Z,11.70
2023-03-28T18:57:53.132Z,7.77
2023-03-28T19:00:20.344Z,5.47
2023-03-28T19:02:48.631Z,5.30
2023-03-28T19:05:16.479Z,6.03
2023-03-28T19:07:44.379Z,8.90
2023-03-28T19:10:13.166Z,7.73
2023-03-28T19:12:40.972Z,6.10
2023-03-28T19:15:08.566Z,6.23
2023-03-28T19:17:36.285Z,6.63
2023-03-28T19:20:07.296Z,8.40
2023-03-28T19:22:35.041Z,6.57
2023-03-28T19:25:01.711Z,7.27
2023-03-28T19:27:28.267Z,8.40
2023-03-28T19:29:54.808Z,9.33
2023-03-28T19:32:21.410Z,5.30
2023-03-28T19:34:47.987Z,7.30
2023-03-28T19:37:14.685Z,5.17
2023-03-28T19:39:41.342Z,3.40
2023-03-28T19:42:07.916Z,6.73
2023-03-28T19:44:34.493Z,5.60
2023-03-28T19:47:01.168Z,4.37
2023-03-28T19:49:27.723Z,5.37
2023-03-28T19:51:54.671Z,9.20
2023-03-28T19:54:21.976Z,11.53
2023-03-28T19:56:48.693Z,10.83
2023-03-28T19:59:15.584Z,7.53
2023-03-28T20:01:42.255Z,9.50
2023-03-28T20:04:09.863Z,5.40
2023-03-28T20:06:36.879Z,7.93
2023-03-28T20:09:03.701Z,11.70
2023-03-28T20:11:30.361Z,10.23
2023-03-28T20:13:57.500Z,15.23
2023-03-28T20:16:24.163Z,5.07
2023-03-28T20:18:50.746Z,11.10
2023-03-28T20:21:17.478Z,5.30
2023-03-28T20:23:44.201Z,7.93
2023-03-28T20:26:19.620Z,5.90
2023-03-28T20:28:49.847Z,5.40
2023-03-28T20:31:18.499Z,5.10
2023-03-28T20:33:46.020Z,3.80
2023-03-28T20:36:12.638Z,5.60
2023-03-28T20:38:39.307Z,4.53
2023-03-28T20:41:13.400Z,5.90
2023-03-28T20:43:49.937Z,3.17
2023-03-28T20:46:21.228Z,5.17
2023-03-28T20:48:51.889Z,4.13
2023-03-28T20:51:22.065Z,2.90
2023-03-28T20:53:51.711Z,5.13
2023-03-28T20:56:19.901Z,2.17
2023-03-28T20:58:47.454Z,4.00
2023-03-28T21:01:16.527Z,4.00
2023-03-28T21:03:48.422Z,4.80
2023-03-28T21:06:21.388Z,3.30
2023-03-28T21:08:50.774Z,3.90
2023-03-28T21:11:19.380Z,13.00
2023-03-28T21:13:45.987Z,9.00
2023-03-28T21:16:16.569Z,9.90
2023-03-28T21:18:44.125Z,5.43
2023-03-28T21:21:12.838Z,4.90
2023-03-28T21:23:40.414Z,7.70
2023-03-28T21:26:09.301Z,5.73
2023-03-28T21:28:36.639Z,6.87
2023-03-28T21:31:11.497Z,9.47
2023-03-28T21:33:38.653Z,5.87
2023-03-28T21:36:07.374Z,7.33
2023-03-28T21:38:34.663Z,6.33
2023-03-28T21:41:01.547Z,10.97
2023-03-28T21:43:28.380Z,8.73
2023-03-28T21:45:55.092Z,5.47
2023-03-28T21:48:21.908Z,5.30
2023-03-28T21:50:58.876Z,6.23
2023-03-28T21:53:27.887Z,16.20
2023-03-28T21:55:56.053Z,5.43
2023-03-28T21:58:23.739Z,8.63
2023-03-28T22:00:50.322Z,8.20
2023-03-28T22:03:17.343Z,8.50
2023-03-28T22:05:44.298Z,9.80
2023-03-28T22:08:12.416Z,11.47
2023-03-28T22:10:45.686Z,10.63
2023-03-28T22:13:13.810Z,8.67
2023-03-28T22:15:40.875Z,9.87
2023-03-28T22:18:09.104Z,12.23
2023-03-28T22:20:38.005Z,10.20
2023-03-28T22:23:05.826Z,8.97
2023-03-28T22:25:35.714Z,9.70
2023-03-28T22:28:04.209Z,10.07
2023-03-28T22:30:31.942Z,8.77
2023-03-28T22:32:58.554Z,11.97
2023-03-28T22:35:25.242Z,9.70
2023-03-28T22:37:52.156Z,9.23
2023-03-28T22:40:18.996Z,10.70
2023-03-28T22:42:46.779Z,11.10
2023-03-28T22:45:13.937Z,7.57
2023-03-28T22:47:40.716Z,6.67
2023-03-28T22:50:09.781Z,7.67
2023-03-28T22:52:37.987Z,7.00
2023-03-28T22:55:09.338Z,5.97
2023-03-28T22:57:35.993Z,6.00
2023-03-28T23:00:03.412Z,5.33
2023-03-28T23:02:30.058Z,5.83
2023-03-28T23:04:57.062Z,5.13
2023-03-28T23:07:23.890Z,6.17
2023-03-28T23:09:50.483Z,8.37
2023-03-28T23:12:17.045Z,6.37
2023-03-28T23:14:43.597Z,6.40
2023-03-28T23:17:11.004Z,6.63
2023-03-28T23:19:37.628Z,5.33
2023-03-28T23:22:04.196Z,6.83
2023-03-28T23:24:30.836Z,6.90
2023-03-28T23:26:57.523Z,5.80
2023-03-28T23:29:24.616Z,5.53
2023-03-28T23:31:51.348Z,5.63
2023-03-28T23:34:17.983Z,5.63
2023-03-28T23:36:46.193Z,8.63
2023-03-28T23:39:13.433Z,6.63
2023-03-28T23:41:41.229Z,4.97
2023-03-28T23:44:07.920Z,4.80
2023-03-28T23:46:34.721Z,5.50
2023-03-28T23:49:01.460Z,6.50
2023-03-28T23:51:29.135Z,8.17
2023-03-28T23:53:56.362Z,5.70
2023-03-28T23:56:24.804Z,6.30
2023-03-28T23:58:52.218Z,8.43
